sensor_id;sensor_type;location;lat;lon;timestamp;P1;durP1;ratioP1;P2;durP2;ratioP2
35602;SDS011;21725;50.836;4.368;2022-12-18T00:01:40;29.35;;;18.75;;
35602;SDS011;21725;50.836;4.368;2022-12-18T00:04:40;31.23;;;20.10;;
35602;SDS011;21725;50.836;4.368;2022-12-18T00:07:41;33.50;;;17.63;;
35602;SDS011;21725;50.836;4.368;2022-12-18T00:10:42;30.50;;;17.75;;
35602;SDS011;21725;50.836;4.368;2022-12-18T00:13:46;32.35;;;19.55;;
35602;SDS011;21725;50.836;4.368;2022-12-18T00:16:47;29.80;;;17.70;;
35602;SDS011;21725;50.836;4.368;2022-12-18T00:19:50;32.42;;;17.80;;
35602;SDS011;21725;50.836;4.368;2022-12-18T00:22:53;36.15;;;20.15;;
35602;SDS011;21725;50.836;4.368;2022-12-18T00:25:54;31.52;;;19.90;;
35602;SDS011;21725;50.836;4.368;2022-12-18T00:29:07;26.77;;;16.67;;
35602;SDS011;21725;50.836;4.368;2022-12-18T00:32:14;31.13;;;18.15;;
35602;SDS011;21725;50.836;4.368;2022-12-18T00:35:15;30.20;;;18.10;;
35602;SDS011;21725;50.836;4.368;2022-12-18T00:38:15;27.98;;;17.00;;
35602;SDS011;21725;50.836;4.368;2022-12-18T00:41:23;29.85;;;17.55;;
35602;SDS011;21725;50.836;4.368;2022-12-18T00:44:43;30.65;;;18.98;;
35602;SDS011;21725;50.836;4.368;2022-12-18T00:47:47;29.13;;;17.05;;
35602;SDS011;21725;50.836;4.368;2022-12-18T00:50:48;27.92;;;16.02;;
35602;SDS011;21725;50.836;4.368;2022-12-18T00:53:49;27.88;;;16.05;;
35602;SDS011;21725;50.836;4.368;2022-12-18T00:56:54;29.42;;;16.95;;
35602;SDS011;21725;50.836;4.368;2022-12-18T00:59:55;25.33;;;14.85;;
35602;SDS011;21725;50.836;4.368;2022-12-18T01:03:03;25.33;;;15.55;;
35602;SDS011;21725;50.836;4.368;2022-12-18T01:06:07;23.52;;;12.27;;
35602;SDS011;21725;50.836;4.368;2022-12-18T01:09:09;23.00;;;13.52;;
35602;SDS011;21725;50.836;4.368;2022-12-18T01:12:10;24.13;;;14.60;;
35602;SDS011;21725;50.836;4.368;2022-12-18T01:15:11;20.25;;;11.43;;
35602;SDS011;21725;50.836;4.368;2022-12-18T01:18:16;22.83;;;13.23;;
35602;SDS011;21725;50.836;4.368;2022-12-18T01:21:20;23.83;;;14.00;;
35602;SDS011;21725;50.836;4.368;2022-12-18T01:24:26;24.58;;;13.50;;
35602;SDS011;21725;50.836;4.368;2022-12-18T01:27:30;23.02;;;13.52;;
35602;SDS011;21725;50.836;4.368;2022-12-18T01:30:30;22.92;;;13.80;;
35602;SDS011;21725;50.836;4.368;2022-12-18T01:33:33;21.63;;;12.82;;
35602;SDS011;21725;50.836;4.368;2022-12-18T01:36:35;21.27;;;12.02;;
35602;SDS011;21725;50.836;4.368;2022-12-18T01:39:37;26.63;;;15.88;;
35602;SDS011;21725;50.836;4.368;2022-12-18T01:42:37;22.70;;;13.90;;
35602;SDS011;21725;50.836;4.368;2022-12-18T01:45:38;24.80;;;14.05;;
35602;SDS011;21725;50.836;4.368;2022-12-18T01:48:39;21.95;;;13.60;;
35602;SDS011;21725;50.836;4.368;2022-12-18T01:51:40;23.75;;;13.13;;
35602;SDS011;21725;50.836;4.368;2022-12-18T01:54:41;21.67;;;13.07;;
35602;SDS011;21725;50.836;4.368;2022-12-18T01:57:42;24.13;;;12.27;;
35602;SDS011;21725;50.836;4.368;2022-12-18T02:00:43;18.25;;;11.02;;
35602;SDS011;21725;50.836;4.368;2022-12-18T02:03:44;20.73;;;11.75;;
35602;SDS011;21725;50.836;4.368;2022-12-18T02:06:48;17.92;;;11.00;;
35602;SDS011;21725;50.836;4.368;2022-12-18T02:10:15;20.77;;;12.15;;
35602;SDS011;21725;50.836;4.368;2022-12-18T02:16:44;19.25;;;11.18;;
35602;SDS011;21725;50.836;4.368;2022-12-18T02:23:41;21.85;;;12.07;;
35602;SDS011;21725;50.836;4.368;2022-12-18T02:26:53;19.63;;;11.50;;
35602;SDS011;21725;50.836;4.368;2022-12-18T02:29:57;20.10;;;11.75;;
35602;SDS011;21725;50.836;4.368;2022-12-18T02:33:00;18.00;;;10.75;;
35602;SDS011;21725;50.836;4.368;2022-12-18T02:36:05;19.58;;;11.23;;
35602;SDS011;21725;50.836;4.368;2022-12-18T02:39:07;20.45;;;10.85;;
35602;SDS011;21725;50.836;4.368;2022-12-18T02:42:12;16.15;;;9.80;;
35602;SDS011;21725;50.836;4.368;2022-12-18T02:45:13;18.92;;;10.43;;
35602;SDS011;21725;50.836;4.368;2022-12-18T02:48:17;20.30;;;10.77;;
35602;SDS011;21725;50.836;4.368;2022-12-18T03:01:13;21.88;;;10.98;;
35602;SDS011;21725;50.836;4.368;2022-12-18T03:04:33;17.80;;;10.60;;
35602;SDS011;21725;50.836;4.368;2022-12-18T03:07:49;19.92;;;10.68;;
35602;SDS011;21725;50.836;4.368;2022-12-18T03:11:05;16.63;;;9.93;;
35602;SDS011;21725;50.836;4.368;2022-12-18T03:14:10;17.30;;;9.90;;
35602;SDS011;21725;50.836;4.368;2022-12-18T03:17:14;17.52;;;10.65;;
35602;SDS011;21725;50.836;4.368;2022-12-18T03:20:22;18.17;;;9.63;;
35602;SDS011;21725;50.836;4.368;2022-12-18T03:23:29;17.95;;;9.07;;
35602;SDS011;21725;50.836;4.368;2022-12-18T03:29:50;15.93;;;9.73;;
35602;SDS011;21725;50.836;4.368;2022-12-18T03:33:18;16.10;;;8.82;;
35602;SDS011;21725;50.836;4.368;2022-12-18T03:36:25;14.60;;;9.60;;
35602;SDS011;21725;50.836;4.368;2022-12-18T03:39:36;15.35;;;9.00;;
35602;SDS011;21725;50.836;4.368;2022-12-18T03:45:41;16.65;;;10.18;;
35602;SDS011;21725;50.836;4.368;2022-12-18T03:48:51;16.95;;;9.40;;
35602;SDS011;21725;50.836;4.368;2022-12-18T03:55:09;17.17;;;8.82;;
35602;SDS011;21725;50.836;4.368;2022-12-18T03:58:11;18.25;;;10.27;;
35602;SDS011;21725;50.836;4.368;2022-12-18T04:01:15;17.60;;;10.07;;
35602;SDS011;21725;50.836;4.368;2022-12-18T04:04:18;17.45;;;9.80;;
35602;SDS011;21725;50.836;4.368;2022-12-18T04:07:20;15.63;;;8.73;;
35602;SDS011;21725;50.836;4.368;2022-12-18T04:10:21;14.60;;;8.23;;
35602;SDS011;21725;50.836;4.368;2022-12-18T04:13:29;16.15;;;8.82;;
35602;SDS011;21725;50.836;4.368;2022-12-18T04:16:37;14.13;;;8.03;;
35602;SDS011;21725;50.836;4.368;2022-12-18T04:19:38;15.97;;;9.20;;
35602;SDS011;21725;50.836;4.368;2022-12-18T04:22:38;15.32;;;7.93;;
35602;SDS011;21725;50.836;4.368;2022-12-18T04:25:39;15.27;;;9.10;;
35602;SDS011;21725;50.836;4.368;2022-12-18T04:28:42;17.87;;;8.10;;
35602;SDS011;21725;50.836;4.368;2022-12-18T04:31:45;14.60;;;8.55;;
35602;SDS011;21725;50.836;4.368;2022-12-18T04:34:46;14.43;;;7.82;;
35602;SDS011;21725;50.836;4.368;2022-12-18T04:37:57;15.43;;;8.88;;
35602;SDS011;21725;50.836;4.368;2022-12-18T04:40:58;14.10;;;8.15;;
35602;SDS011;21725;50.836;4.368;2022-12-18T04:43:59;17.05;;;9.40;;
35602;SDS011;21725;50.836;4.368;2022-12-18T04:47:03;16.58;;;9.20;;
35602;SDS011;21725;50.836;4.368;2022-12-18T04:50:04;16.45;;;8.55;;
35602;SDS011;21725;50.836;4.368;2022-12-18T04:53:05;14.23;;;7.35;;
35602;SDS011;21725;50.836;4.368;2022-12-18T04:56:09;16.00;;;9.38;;
35602;SDS011;21725;50.836;4.368;2022-12-18T04:59:17;18.05;;;9.52;;
35602;SDS011;21725;50.836;4.368;2022-12-18T05:34:40;13.10;;;8.00;;
35602;SDS011;21725;50.836;4.368;2022-12-18T05:37:43;14.45;;;8.02;;
35602;SDS011;21725;50.836;4.368;2022-12-18T05:40:55;14.88;;;8.13;;
35602;SDS011;21725;50.836;4.368;2022-12-18T05:43:56;13.43;;;7.30;;
35602;SDS011;21725;50.836;4.368;2022-12-18T05:47:00;15.60;;;7.47;;
35602;SDS011;21725;50.836;4.368;2022-12-18T05:50:09;9.20;;;6.18;;
35602;SDS011;21725;50.836;4.368;2022-12-18T05:53:12;14.32;;;7.13;;
35602;SDS011;21725;50.836;4.368;2022-12-18T05:56:16;15.37;;;9.37;;
35602;SDS011;21725;50.836;4.368;2022-12-18T05:59:22;17.07;;;8.80;;
35602;SDS011;21725;50.836;4.368;2022-12-18T06:02:24;11.47;;;6.10;;
35602;SDS011;21725;50.836;4.368;2022-12-18T06:05:25;13.53;;;7.53;;
35602;SDS011;21725;50.836;4.368;2022-12-18T06:08:33;13.63;;;7.70;;
35602;SDS011;21725;50.836;4.368;2022-12-18T06:11:36;12.93;;;7.13;;
35602;SDS011;21725;50.836;4.368;2022-12-18T06:14:37;11.97;;;6.93;;
35602;SDS011;21725;50.836;4.368;2022-12-18T06:17:38;51.70;;;21.40;;
35602;SDS011;21725;50.836;4.368;2022-12-18T06:20:40;13.75;;;8.00;;
35602;SDS011;21725;50.836;4.368;2022-12-18T06:23:41;13.30;;;7.70;;
35602;SDS011;21725;50.836;4.368;2022-12-18T06:26:42;14.38;;;6.95;;
35602;SDS011;21725;50.836;4.368;2022-12-18T06:29:43;12.63;;;7.53;;
35602;SDS011;21725;50.836;4.368;2022-12-18T06:32:49;13.13;;;7.65;;
35602;SDS011;21725;50.836;4.368;2022-12-18T06:35:52;13.05;;;7.32;;
35602;SDS011;21725;50.836;4.368;2022-12-18T06:38:53;13.03;;;7.07;;
35602;SDS011;21725;50.836;4.368;2022-12-18T06:41:55;12.27;;;7.13;;
35602;SDS011;21725;50.836;4.368;2022-12-18T06:44:56;10.93;;;7.10;;
35602;SDS011;21725;50.836;4.368;2022-12-18T06:47:57;13.60;;;7.70;;
35602;SDS011;21725;50.836;4.368;2022-12-18T06:51:02;11.82;;;7.15;;
35602;SDS011;21725;50.836;4.368;2022-12-18T06:54:04;11.20;;;6.53;;
35602;SDS011;21725;50.836;4.368;2022-12-18T06:57:04;12.60;;;6.45;;
35602;SDS011;21725;50.836;4.368;2022-12-18T07:00:06;13.02;;;6.88;;
35602;SDS011;21725;50.836;4.368;2022-12-18T07:03:07;12.70;;;7.20;;
35602;SDS011;21725;50.836;4.368;2022-12-18T07:06:15;10.00;;;6.60;;
35602;SDS011;21725;50.836;4.368;2022-12-18T07:09:18;12.18;;;6.80;;
35602;SDS011;21725;50.836;4.368;2022-12-18T07:12:19;14.13;;;7.47;;
35602;SDS011;21725;50.836;4.368;2022-12-18T07:15:20;15.37;;;6.63;;
35602;SDS011;21725;50.836;4.368;2022-12-18T07:18:23;13.55;;;7.25;;
35602;SDS011;21725;50.836;4.368;2022-12-18T07:21:24;13.10;;;7.00;;
35602;SDS011;21725;50.836;4.368;2022-12-18T07:24:33;11.38;;;6.63;;
35602;SDS011;21725;50.836;4.368;2022-12-18T07:27:41;11.17;;;6.80;;
35602;SDS011;21725;50.836;4.368;2022-12-18T07:30:41;15.47;;;7.13;;
35602;SDS011;21725;50.836;4.368;2022-12-18T07:33:47;12.90;;;7.20;;
35602;SDS011;21725;50.836;4.368;2022-12-18T07:36:48;11.90;;;7.13;;
35602;SDS011;21725;50.836;4.368;2022-12-18T07:39:49;12.65;;;6.90;;
35602;SDS011;21725;50.836;4.368;2022-12-18T07:42:52;13.57;;;7.63;;
35602;SDS011;21725;50.836;4.368;2022-12-18T07:46:00;21.37;;;8.37;;
35602;SDS011;21725;50.836;4.368;2022-12-18T07:49:01;12.03;;;6.83;;
35602;SDS011;21725;50.836;4.368;2022-12-18T07:52:02;14.35;;;7.18;;
35602;SDS011;21725;50.836;4.368;2022-12-18T07:55:03;10.60;;;6.63;;
35602;SDS011;21725;50.836;4.368;2022-12-18T07:58:07;14.45;;;7.80;;
35602;SDS011;21725;50.836;4.368;2022-12-18T08:01:09;12.33;;;7.40;;
35602;SDS011;21725;50.836;4.368;2022-12-18T08:04:11;14.23;;;6.97;;
35602;SDS011;21725;50.836;4.368;2022-12-18T08:07:12;14.07;;;7.15;;
35602;SDS011;21725;50.836;4.368;2022-12-18T08:10:13;10.50;;;6.67;;
35602;SDS011;21725;50.836;4.368;2022-12-18T08:13:32;11.60;;;6.53;;
35602;SDS011;21725;50.836;4.368;2022-12-18T08:20:36;12.70;;;7.80;;
35602;SDS011;21725;50.836;4.368;2022-12-18T08:23:40;16.23;;;9.03;;
35602;SDS011;21725;50.836;4.368;2022-12-18T08:26:41;11.67;;;7.27;;
35602;SDS011;21725;50.836;4.368;2022-12-18T08:29:42;10.43;;;6.20;;
35602;SDS011;21725;50.836;4.368;2022-12-18T08:32:43;12.07;;;6.90;;
35602;SDS011;21725;50.836;4.368;2022-12-18T08:35:48;13.75;;;8.13;;
35602;SDS011;21725;50.836;4.368;2022-12-18T08:38:52;12.75;;;7.55;;
35602;SDS011;21725;50.836;4.368;2022-12-18T08:41:53;11.47;;;6.03;;
35602;SDS011;21725;50.836;4.368;2022-12-18T08:45:12;15.38;;;6.50;;
35602;SDS011;21725;50.836;4.368;2022-12-18T08:48:16;11.75;;;6.97;;
35602;SDS011;21725;50.836;4.368;2022-12-18T08:51:17;11.85;;;6.57;;
35602;SDS011;21725;50.836;4.368;2022-12-18T08:54:20;11.43;;;7.32;;
35602;SDS011;21725;50.836;4.368;2022-12-18T08:57:21;14.25;;;7.78;;
35602;SDS011;21725;50.836;4.368;2022-12-18T09:00:24;13.02;;;7.18;;
35602;SDS011;21725;50.836;4.368;2022-12-18T09:03:25;14.15;;;8.10;;
35602;SDS011;21725;50.836;4.368;2022-12-18T09:06:28;12.00;;;6.68;;
35602;SDS011;21725;50.836;4.368;2022-12-18T09:09:31;12.63;;;6.63;;
35602;SDS011;21725;50.836;4.368;2022-12-18T09:12:32;13.50;;;8.20;;
35602;SDS011;21725;50.836;4.368;2022-12-18T09:15:40;13.48;;;7.22;;
35602;SDS011;21725;50.836;4.368;2022-12-18T09:18:48;11.55;;;7.20;;
35602;SDS011;21725;50.836;4.368;2022-12-18T09:21:49;12.40;;;7.45;;
35602;SDS011;21725;50.836;4.368;2022-12-18T09:24:49;12.20;;;7.70;;
35602;SDS011;21725;50.836;4.368;2022-12-18T09:27:52;20.65;;;8.75;;
35602;SDS011;21725;50.836;4.368;2022-12-18T09:30:53;13.68;;;8.52;;
35602;SDS011;21725;50.836;4.368;2022-12-18T09:33:54;15.77;;;8.93;;
35602;SDS011;21725;50.836;4.368;2022-12-18T09:36:56;15.93;;;8.45;;
35602;SDS011;21725;50.836;4.368;2022-12-18T09:40:04;13.75;;;9.27;;
35602;SDS011;21725;50.836;4.368;2022-12-18T09:43:05;13.68;;;8.30;;
35602;SDS011;21725;50.836;4.368;2022-12-18T09:46:17;16.70;;;10.07;;
35602;SDS011;21725;50.836;4.368;2022-12-18T09:49:21;17.30;;;9.55;;
35602;SDS011;21725;50.836;4.368;2022-12-18T09:52:27;16.15;;;9.43;;
35602;SDS011;21725;50.836;4.368;2022-12-18T09:55:42;19.95;;;9.68;;
35602;SDS011;21725;50.836;4.368;2022-12-18T10:02:18;16.73;;;9.90;;
35602;SDS011;21725;50.836;4.368;2022-12-18T10:05:28;13.18;;;8.25;;
35602;SDS011;21725;50.836;4.368;2022-12-18T10:15:30;18.33;;;9.13;;
35602;SDS011;21725;50.836;4.368;2022-12-18T10:19:11;15.35;;;9.82;;
35602;SDS011;21725;50.836;4.368;2022-12-18T10:29:10;18.58;;;11.05;;
35602;SDS011;21725;50.836;4.368;2022-12-18T10:32:17;18.30;;;10.45;;
35602;SDS011;21725;50.836;4.368;2022-12-18T10:35:24;17.67;;;9.68;;
35602;SDS011;21725;50.836;4.368;2022-12-18T10:38:27;15.10;;;9.75;;
35602;SDS011;21725;50.836;4.368;2022-12-18T10:41:37;19.40;;;10.60;;
35602;SDS011;21725;50.836;4.368;2022-12-18T10:44:38;19.50;;;10.63;;
35602;SDS011;21725;50.836;4.368;2022-12-18T10:47:48;19.95;;;10.48;;
35602;SDS011;21725;50.836;4.368;2022-12-18T10:50:50;13.57;;;7.77;;
35602;SDS011;21725;50.836;4.368;2022-12-18T10:54:14;18.35;;;10.57;;
35602;SDS011;21725;50.836;4.368;2022-12-18T10:57:16;15.90;;;9.98;;
35602;SDS011;21725;50.836;4.368;2022-12-18T11:22:57;19.40;;;11.60;;
35602;SDS011;21725;50.836;4.368;2022-12-18T11:26:01;21.60;;;9.85;;
35602;SDS011;21725;50.836;4.368;2022-12-18T11:29:10;17.15;;;10.60;;
35602;SDS011;21725;50.836;4.368;2022-12-18T11:32:33;14.25;;;9.57;;
35602;SDS011;21725;50.836;4.368;2022-12-18T11:35:46;16.13;;;9.82;;
35602;SDS011;21725;50.836;4.368;2022-12-18T11:38:53;12.93;;;8.70;;
35602;SDS011;21725;50.836;4.368;2022-12-18T11:41:56;16.80;;;9.85;;
35602;SDS011;21725;50.836;4.368;2022-12-18T11:58:46;18.35;;;10.70;;
35602;SDS011;21725;50.836;4.368;2022-12-18T12:02:17;18.17;;;11.13;;
35602;SDS011;21725;50.836;4.368;2022-12-18T12:12:34;17.15;;;10.98;;
35602;SDS011;21725;50.836;4.368;2022-12-18T12:26:39;21.92;;;11.13;;
35602;SDS011;21725;50.836;4.368;2022-12-18T12:40:46;19.05;;;11.95;;
35602;SDS011;21725;50.836;4.368;2022-12-18T12:43:52;18.75;;;11.07;;
35602;SDS011;21725;50.836;4.368;2022-12-18T12:47:23;18.25;;;9.82;;
35602;SDS011;21725;50.836;4.368;2022-12-18T13:05:58;22.13;;;13.45;;
35602;SDS011;21725;50.836;4.368;2022-12-18T13:09:03;22.88;;;13.77;;
35602;SDS011;21725;50.836;4.368;2022-12-18T13:12:04;24.23;;;14.77;;
35602;SDS011;21725;50.836;4.368;2022-12-18T13:15:31;22.90;;;12.32;;
35602;SDS011;21725;50.836;4.368;2022-12-18T13:18:38;19.45;;;12.18;;
35602;SDS011;21725;50.836;4.368;2022-12-18T13:21:52;29.70;;;14.43;;
35602;SDS011;21725;50.836;4.368;2022-12-18T13:24:55;29.48;;;14.77;;
35602;SDS011;21725;50.836;4.368;2022-12-18T13:38:33;22.23;;;12.40;;
35602;SDS011;21725;50.836;4.368;2022-12-18T13:41:35;21.98;;;13.15;;
35602;SDS011;21725;50.836;4.368;2022-12-18T13:44:39;28.88;;;14.75;;
35602;SDS011;21725;50.836;4.368;2022-12-18T13:47:43;26.90;;;14.50;;
35602;SDS011;21725;50.836;4.368;2022-12-18T13:50:48;24.63;;;15.50;;
35602;SDS011;21725;50.836;4.368;2022-12-18T13:53:59;22.63;;;14.10;;
35602;SDS011;21725;50.836;4.368;2022-12-18T14:00:41;26.98;;;15.98;;
35602;SDS011;21725;50.836;4.368;2022-12-18T14:03:42;27.60;;;15.25;;
35602;SDS011;21725;50.836;4.368;2022-12-18T14:06:43;28.00;;;16.40;;
35602;SDS011;21725;50.836;4.368;2022-12-18T14:09:46;28.85;;;15.77;;
35602;SDS011;21725;50.836;4.368;2022-12-18T14:12:50;27.75;;;16.73;;
35602;SDS011;21725;50.836;4.368;2022-12-18T14:15:57;32.00;;;18.08;;
35602;SDS011;21725;50.836;4.368;2022-12-18T14:19:09;29.00;;;16.98;;
35602;SDS011;21725;50.836;4.368;2022-12-18T14:22:20;30.05;;;16.13;;
35602;SDS011;21725;50.836;4.368;2022-12-18T14:25:28;26.27;;;15.93;;
35602;SDS011;21725;50.836;4.368;2022-12-18T14:28:29;25.67;;;15.18;;
35602;SDS011;21725;50.836;4.368;2022-12-18T14:31:32;25.75;;;15.25;;
35602;SDS011;21725;50.836;4.368;2022-12-18T14:34:33;33.42;;;15.90;;
35602;SDS011;21725;50.836;4.368;2022-12-18T14:37:34;26.85;;;15.70;;
35602;SDS011;21725;50.836;4.368;2022-12-18T14:40:35;29.17;;;15.55;;
35602;SDS011;21725;50.836;4.368;2022-12-18T14:43:36;30.98;;;16.58;;
35602;SDS011;21725;50.836;4.368;2022-12-18T14:46:45;26.10;;;16.08;;
35602;SDS011;21725;50.836;4.368;2022-12-18T14:49:47;29.70;;;16.70;;
35602;SDS011;21725;50.836;4.368;2022-12-18T14:52:47;34.40;;;19.20;;
35602;SDS011;21725;50.836;4.368;2022-12-18T14:55:49;30.40;;;18.10;;
35602;SDS011;21725;50.836;4.368;2022-12-18T14:58:57;27.75;;;17.08;;
35602;SDS011;21725;50.836;4.368;2022-12-18T15:02:23;30.00;;;16.73;;
35602;SDS011;21725;50.836;4.368;2022-12-18T15:05:28;29.60;;;18.50;;
35602;SDS011;21725;50.836;4.368;2022-12-18T15:08:36;32.67;;;17.55;;
35602;SDS011;21725;50.836;4.368;2022-12-18T15:14:40;28.85;;;17.42;;
35602;SDS011;21725;50.836;4.368;2022-12-18T15:17:41;28.90;;;16.77;;
35602;SDS011;21725;50.836;4.368;2022-12-18T15:23:54;29.95;;;17.27;;
35602;SDS011;21725;50.836;4.368;2022-12-18T15:26:59;29.13;;;16.08;;
35602;SDS011;21725;50.836;4.368;2022-12-18T15:33:17;37.28;;;18.52;;
35602;SDS011;21725;50.836;4.368;2022-12-18T15:36:27;29.63;;;17.75;;
35602;SDS011;21725;50.836;4.368;2022-12-18T15:39:29;31.10;;;18.02;;
35602;SDS011;21725;50.836;4.368;2022-12-18T15:42:30;31.05;;;17.65;;
35602;SDS011;21725;50.836;4.368;2022-12-18T15:45:49;29.25;;;15.52;;
35602;SDS011;21725;50.836;4.368;2022-12-18T15:48:51;29.10;;;17.00;;
35602;SDS011;21725;50.836;4.368;2022-12-18T15:51:54;30.20;;;17.35;;
35602;SDS011;21725;50.836;4.368;2022-12-18T15:54:59;26.17;;;15.13;;
35602;SDS011;21725;50.836;4.368;2022-12-18T15:58:18;31.67;;;17.02;;
35602;SDS011;21725;50.836;4.368;2022-12-18T16:01:39;31.38;;;16.88;;
35602;SDS011;21725;50.836;4.368;2022-12-18T16:04:51;26.45;;;15.57;;
35602;SDS011;21725;50.836;4.368;2022-12-18T16:07:53;24.60;;;15.18;;
35602;SDS011;21725;50.836;4.368;2022-12-18T16:10:54;28.88;;;16.55;;
35602;SDS011;21725;50.836;4.368;2022-12-18T16:21:30;23.40;;;13.98;;
35602;SDS011;21725;50.836;4.368;2022-12-18T16:24:34;27.42;;;15.40;;
35602;SDS011;21725;50.836;4.368;2022-12-18T16:56:46;29.65;;;16.08;;
35602;SDS011;21725;50.836;4.368;2022-12-18T17:23:51;26.25;;;13.52;;
35602;SDS011;21725;50.836;4.368;2022-12-18T17:30:29;26.05;;;14.65;;
35602;SDS011;21725;50.836;4.368;2022-12-18T17:33:30;26.85;;;15.02;;
35602;SDS011;21725;50.836;4.368;2022-12-18T17:36:31;26.67;;;14.60;;
35602;SDS011;21725;50.836;4.368;2022-12-18T17:39:32;24.55;;;14.40;;
35602;SDS011;21725;50.836;4.368;2022-12-18T17:42:32;28.55;;;16.63;;
35602;SDS011;21725;50.836;4.368;2022-12-18T17:45:36;25.95;;;15.13;;
35602;SDS011;21725;50.836;4.368;2022-12-18T17:48:38;25.40;;;15.13;;
35602;SDS011;21725;50.836;4.368;2022-12-18T17:51:39;22.92;;;13.57;;
35602;SDS011;21725;50.836;4.368;2022-12-18T17:54:41;29.70;;;15.35;;
35602;SDS011;21725;50.836;4.368;2022-12-18T17:57:43;23.55;;;14.35;;
35602;SDS011;21725;50.836;4.368;2022-12-18T18:00:44;29.40;;;16.73;;
35602;SDS011;21725;50.836;4.368;2022-12-18T18:03:45;26.15;;;14.82;;
35602;SDS011;21725;50.836;4.368;2022-12-18T18:06:46;31.20;;;18.02;;
35602;SDS011;21725;50.836;4.368;2022-12-18T18:09:57;24.52;;;14.40;;
35602;SDS011;21725;50.836;4.368;2022-12-18T18:13:01;26.90;;;14.60;;
35602;SDS011;21725;50.836;4.368;2022-12-18T18:16:21;27.10;;;15.32;;
35602;SDS011;21725;50.836;4.368;2022-12-18T18:19:23;24.60;;;16.17;;
35602;SDS011;21725;50.836;4.368;2022-12-18T18:22:29;26.73;;;15.27;;
35602;SDS011;21725;50.836;4.368;2022-12-18T18:25:34;28.88;;;15.13;;
35602;SDS011;21725;50.836;4.368;2022-12-18T18:28:37;28.75;;;15.57;;
35602;SDS011;21725;50.836;4.368;2022-12-18T18:31:38;26.75;;;16.70;;
35602;SDS011;21725;50.836;4.368;2022-12-18T18:34:41;28.30;;;16.15;;
35602;SDS011;21725;50.836;4.368;2022-12-18T18:37:42;32.17;;;16.65;;
35602;SDS011;21725;50.836;4.368;2022-12-18T18:44:17;28.05;;;15.93;;
35602;SDS011;21725;50.836;4.368;2022-12-18T18:47:20;29.20;;;15.00;;
35602;SDS011;21725;50.836;4.368;2022-12-18T18:50:23;26.92;;;14.93;;
35602;SDS011;21725;50.836;4.368;2022-12-18T18:53:25;29.40;;;15.45;;
35602;SDS011;21725;50.836;4.368;2022-12-18T18:56:28;32.63;;;17.08;;
35602;SDS011;21725;50.836;4.368;2022-12-18T18:59:32;28.98;;;16.25;;
35602;SDS011;21725;50.836;4.368;2022-12-18T19:02:33;31.52;;;16.90;;
35602;SDS011;21725;50.836;4.368;2022-12-18T19:05:33;29.67;;;17.48;;
35602;SDS011;21725;50.836;4.368;2022-12-18T19:08:35;28.02;;;16.63;;
35602;SDS011;21725;50.836;4.368;2022-12-18T19:11:37;31.40;;;17.58;;
35602;SDS011;21725;50.836;4.368;2022-12-18T19:14:57;31.27;;;16.80;;
35602;SDS011;21725;50.836;4.368;2022-12-18T19:17:57;30.60;;;17.67;;
35602;SDS011;21725;50.836;4.368;2022-12-18T19:21:03;29.63;;;17.63;;
35602;SDS011;21725;50.836;4.368;2022-12-18T19:24:05;33.08;;;19.23;;
35602;SDS011;21725;50.836;4.368;2022-12-18T19:27:06;28.52;;;18.48;;
35602;SDS011;21725;50.836;4.368;2022-12-18T19:30:07;30.30;;;17.35;;
35602;SDS011;21725;50.836;4.368;2022-12-18T19:33:13;29.20;;;17.23;;
35602;SDS011;21725;50.836;4.368;2022-12-18T19:36:22;28.98;;;17.52;;
35602;SDS011;21725;50.836;4.368;2022-12-18T19:39:24;28.42;;;17.58;;
35602;SDS011;21725;50.836;4.368;2022-12-18T19:42:24;31.48;;;18.65;;
35602;SDS011;21725;50.836;4.368;2022-12-18T19:45:26;30.00;;;17.67;;
35602;SDS011;21725;50.836;4.368;2022-12-18T19:48:27;31.90;;;18.10;;
35602;SDS011;21725;50.836;4.368;2022-12-18T19:51:28;32.85;;;18.52;;
35602;SDS011;21725;50.836;4.368;2022-12-18T19:54:30;33.00;;;16.27;;
35602;SDS011;21725;50.836;4.368;2022-12-18T19:57:31;31.00;;;16.98;;
35602;SDS011;21725;50.836;4.368;2022-12-18T20:00:32;30.65;;;16.80;;
35602;SDS011;21725;50.836;4.368;2022-12-18T20:03:32;30.70;;;16.48;;
35602;SDS011;21725;50.836;4.368;2022-12-18T20:06:44;30.13;;;16.60;;
35602;SDS011;21725;50.836;4.368;2022-12-18T20:09:49;32.35;;;15.90;;
35602;SDS011;21725;50.836;4.368;2022-12-18T20:12:50;30.77;;;15.68;;
35602;SDS011;21725;50.836;4.368;2022-12-18T20:15:50;31.27;;;17.00;;
35602;SDS011;21725;50.836;4.368;2022-12-18T20:18:54;27.45;;;16.48;;
35602;SDS011;21725;50.836;4.368;2022-12-18T20:21:55;27.27;;;16.35;;
35602;SDS011;21725;50.836;4.368;2022-12-18T20:24:56;34.05;;;16.23;;
35602;SDS011;21725;50.836;4.368;2022-12-18T20:27:57;27.52;;;16.77;;
35602;SDS011;21725;50.836;4.368;2022-12-18T20:31:07;28.83;;;17.05;;
35602;SDS011;21725;50.836;4.368;2022-12-18T20:34:08;24.50;;;14.38;;
35602;SDS011;21725;50.836;4.368;2022-12-18T20:37:08;26.90;;;15.50;;
35602;SDS011;21725;50.836;4.368;2022-12-18T20:40:09;26.45;;;16.02;;
35602;SDS011;21725;50.836;4.368;2022-12-18T20:43:10;26.85;;;15.80;;
35602;SDS011;21725;50.836;4.368;2022-12-18T20:46:13;30.45;;;16.10;;
35602;SDS011;21725;50.836;4.368;2022-12-18T20:49:17;26.05;;;14.45;;
35602;SDS011;21725;50.836;4.368;2022-12-18T20:52:18;29.77;;;15.30;;
35602;SDS011;21725;50.836;4.368;2022-12-18T20:55:19;23.45;;;13.95;;
35602;SDS011;21725;50.836;4.368;2022-12-18T20:58:20;23.85;;;13.95;;
35602;SDS011;21725;50.836;4.368;2022-12-18T21:05:03;25.95;;;14.25;;
35602;SDS011;21725;50.836;4.368;2022-12-18T21:08:04;25.00;;;13.60;;
35602;SDS011;21725;50.836;4.368;2022-12-18T21:14:37;28.13;;;15.00;;
35602;SDS011;21725;50.836;4.368;2022-12-18T21:49:35;24.73;;;14.15;;
35602;SDS011;21725;50.836;4.368;2022-12-18T21:52:36;24.40;;;13.50;;
35602;SDS011;21725;50.836;4.368;2022-12-18T21:55:38;25.08;;;14.60;;
35602;SDS011;21725;50.836;4.368;2022-12-18T22:01:49;22.45;;;13.27;;
35602;SDS011;21725;50.836;4.368;2022-12-18T22:17:32;28.92;;;16.20;;
35602;SDS011;21725;50.836;4.368;2022-12-18T22:20:37;23.40;;;13.30;;
35602;SDS011;21725;50.836;4.368;2022-12-18T22:23:40;23.80;;;13.60;;
35602;SDS011;21725;50.836;4.368;2022-12-18T22:29:52;22.85;;;12.77;;
35602;SDS011;21725;50.836;4.368;2022-12-18T22:33:07;26.05;;;13.73;;
35602;SDS011;21725;50.836;4.368;2022-12-18T22:36:08;24.90;;;14.95;;
35602;SDS011;21725;50.836;4.368;2022-12-18T22:42:20;24.10;;;13.93;;
35602;SDS011;21725;50.836;4.368;2022-12-18T22:45:21;25.38;;;14.30;;
35602;SDS011;21725;50.836;4.368;2022-12-18T22:51:37;24.00;;;14.23;;
35602;SDS011;21725;50.836;4.368;2022-12-18T22:54:40;24.08;;;14.15;;
35602;SDS011;21725;50.836;4.368;2022-12-18T23:00:53;22.90;;;14.27;;
35602;SDS011;21725;50.836;4.368;2022-12-18T23:24:04;28.70;;;14.77;;
35602;SDS011;21725;50.836;4.368;2022-12-18T23:27:05;27.45;;;14.82;;
35602;SDS011;21725;50.836;4.368;2022-12-18T23:30:06;25.73;;;12.85;;
35602;SDS011;21725;50.836;4.368;2022-12-18T23:33:07;23.27;;;13.55;;
35602;SDS011;21725;50.836;4.368;2022-12-18T23:36:10;23.30;;;13.57;;
35602;SDS011;21725;50.836;4.368;2022-12-18T23:39:12;24.25;;;11.82;;
35602;SDS011;21725;50.836;4.368;2022-12-18T23:42:13;19.55;;;12.68;;
35602;SDS011;21725;50.836;4.368;2022-12-18T23:45:14;19.90;;;12.60;;